createdAt,value
2022-10-29T00:00:35.812Z,100132.94
2022-10-29T00:03:25.167Z,100125.31
2022-10-29T00:06:13.722Z,100131.88
2022-10-29T00:09:01.271Z,100137.16
2022-10-29T00:11:49.974Z,100136.88
2022-10-29T00:14:37.792Z,100127.88
2022-10-29T00:17:25.138Z,100134.41
2022-10-29T00:20:12.964Z,100126.47
2022-10-29T00:23:00.624Z,100131.44
2022-10-29T00:25:47.884Z,100141.94
2022-10-29T00:28:36.975Z,100134.31
2022-10-29T00:31:25.510Z,100130.09
2022-10-29T00:34:12.954Z,100131.13
2022-10-29T00:37:00.199Z,100132.97
2022-10-29T00:39:47.418Z,100124.31
2022-10-29T00:42:34.786Z,100139.50
2022-10-29T00:45:23.354Z,100132.44
2022-10-29T00:48:10.787Z,100126.38
2022-10-29T00:51:00.534Z,100145.81
2022-10-29T00:53:52.434Z,100145.25
2022-10-29T00:56:44.816Z,100146.56
2022-10-29T00:59:32.486Z,100148.91
2022-10-29T01:02:23.428Z,100149.41
2022-10-29T01:05:12.481Z,100146.22
2022-10-29T01:07:59.891Z,100149.09
2022-10-29T01:10:57.438Z,100151.19
2022-10-29T01:14:01.536Z,100145.63
2022-10-29T01:16:54.218Z,100141.16
2022-10-29T01:20:30.661Z,100139.28
2022-10-29T01:24:11.114Z,100151.53
2022-10-29T01:27:37.004Z,100149.94
2022-10-29T01:31:03.123Z,100144.44
2022-10-29T01:33:56.603Z,100143.97
2022-10-29T01:36:53.550Z,100135.09
2022-10-29T01:39:48.770Z,100134.03
2022-10-29T01:42:41.442Z,100142.44
2022-10-29T01:45:36.569Z,100130.91
2022-10-29T01:48:33.360Z,100129.84
2022-10-29T01:51:24.515Z,100127.47
2022-10-29T01:54:13.254Z,100130.84
2022-10-29T01:57:02.167Z,100127.34
2022-10-29T01:59:56.001Z,100125.94
2022-10-29T02:03:04.139Z,100124.34
2022-10-29T02:06:01.672Z,100124.34
2022-10-29T02:08:59.392Z,100127.97
2022-10-29T02:11:54.147Z,100113.00
2022-10-29T02:14:50.399Z,100124.75
2022-10-29T02:17:38.443Z,100117.91
2022-10-29T02:20:25.934Z,100126.03
2022-10-29T02:23:15.996Z,100120.50
2022-10-29T02:26:03.347Z,100113.13
2022-10-29T02:28:50.571Z,100107.31
2022-10-29T02:31:38.195Z,100112.00
2022-10-29T02:34:25.610Z,100111.47
2022-10-29T02:37:13.169Z,100110.44
2022-10-29T02:40:01.703Z,100107.81
2022-10-29T02:42:49.247Z,100098.34
2022-10-29T02:45:36.694Z,100098.88
2022-10-29T02:48:24.014Z,100100.50
2022-10-29T02:51:12.147Z,100102.06
2022-10-29T02:53:59.570Z,100104.69
2022-10-29T02:56:48.432Z,100102.06
2022-10-29T02:59:35.964Z,100104.94
2022-10-29T03:15:27.557Z,100099.44
2022-10-29T03:19:50.727Z,100101.22
2022-10-29T03:23:31.760Z,100098.03
2022-10-29T03:26:46.916Z,100097.03
2022-10-29T03:35:16.739Z,100092.44
2022-10-29T04:17:33.898Z,100112.78
2022-10-29T04:31:50.510Z,100107.38
2022-10-29T04:58:48.242Z,100100.94
2022-10-29T05:08:41.803Z,100092.41
2022-10-29T05:46:04.376Z,100064.72
2022-10-29T05:48:51.579Z,100073.47
2022-10-29T05:51:38.948Z,100064.34
2022-10-29T05:54:26.532Z,100073.78
2022-10-29T05:57:13.862Z,100072.19
2022-10-29T06:00:01.213Z,100075.34
2022-10-29T06:02:50.040Z,100076.97
2022-10-29T06:05:19.120Z,100074.88
2022-10-29T06:07:48.270Z,100069.88
2022-10-29T06:10:18.030Z,100073.78
2022-10-29T06:12:47.056Z,100080.06
2022-10-29T06:15:16.392Z,100073.22
2022-10-29T06:17:46.374Z,100069.00
2022-10-29T06:20:18.859Z,100066.41
2022-10-29T06:22:48.043Z,100079.03
2022-10-29T06:25:17.268Z,100073.28
2022-10-29T06:27:46.304Z,100077.50
2022-10-29T06:30:15.635Z,100073.59
2022-10-29T06:32:48.601Z,100072.31
2022-10-29T06:35:19.054Z,100067.84
2022-10-29T06:37:48.131Z,100078.66
2022-10-29T06:40:17.459Z,100075.78
2022-10-29T06:42:46.507Z,100075.31
2022-10-29T06:45:15.812Z,100081.66
2022-10-29T06:47:46.738Z,100078.78
2022-10-29T06:50:15.782Z,100080.31
2022-10-29T06:52:55.415Z,100085.28
2022-10-29T06:55:24.626Z,100081.66
2022-10-29T06:58:01.815Z,100084.56
2022-10-29T07:00:32.203Z,100085.13
2022-10-29T07:03:01.826Z,100083.59
2022-10-29T07:05:30.927Z,100077.28
2022-10-29T07:08:02.797Z,100090.47
2022-10-29T07:10:34.088Z,100092.06
2022-10-29T07:13:03.389Z,100092.06
2022-10-29T07:15:33.018Z,100091.56
2022-10-29T07:18:04.165Z,100085.28
2022-10-29T07:20:35.903Z,100096.81
2022-10-29T07:23:06.727Z,100096.81
2022-10-29T07:25:38.295Z,100098.38
2022-10-29T07:28:09.261Z,100099.75
2022-10-29T07:30:38.714Z,100096.88
2022-10-29T07:33:07.741Z,100104.47
2022-10-29T07:35:36.955Z,100111.34
2022-10-29T07:38:10.744Z,100104.75
2022-10-29T07:40:41.576Z,100108.41
2022-10-29T07:43:10.690Z,100107.63
2022-10-29T07:45:39.728Z,100106.81
2022-10-29T07:48:10.436Z,100111.28
2022-10-29T07:50:40.279Z,100111.59
2022-10-29T07:53:11.858Z,100109.50
2022-10-29T07:55:40.975Z,100114.50
2022-10-29T07:58:13.065Z,100112.19
2022-10-29T08:00:42.786Z,100111.97
2022-10-29T08:03:13.733Z,100111.25
2022-10-29T08:05:43.344Z,100118.66
2022-10-29T08:08:13.691Z,100104.91
2022-10-29T08:10:42.778Z,100111.03
2022-10-29T08:13:11.802Z,100109.31
2022-10-29T08:15:40.915Z,100103.44
2022-10-29T08:18:17.771Z,100103.34
2022-10-29T08:20:47.149Z,100102.22
2022-10-29T08:23:17.850Z,100101.78
2022-10-29T08:25:46.958Z,100103.19
2022-10-29T08:28:17.112Z,100102.44
2022-10-29T08:30:51.341Z,100099.31
2022-10-29T08:33:20.802Z,100105.63
2022-10-29T08:35:50.031Z,100099.88
2022-10-29T08:38:20.397Z,100106.50
2022-10-29T08:41:07.780Z,100105.97
2022-10-29T08:44:07.453Z,100102.06
2022-10-29T08:46:45.644Z,100106.81
2022-10-29T08:49:20.006Z,100104.69
2022-10-29T08:51:58.080Z,100105.75
2022-10-29T08:54:31.987Z,100105.22
2022-10-29T08:57:07.451Z,100110.78
2022-10-29T08:59:42.627Z,100107.91
2022-10-29T09:02:17.384Z,100111.84
2022-10-29T09:04:46.822Z,100108.97
2022-10-29T09:07:45.142Z,100114.22
2022-10-29T09:10:27.192Z,100110.78
2022-10-29T09:13:29.871Z,100115.81
2022-10-29T09:16:14.482Z,100110.00
2022-10-29T09:19:04.071Z,100114.75
2022-10-29T09:21:40.991Z,100113.72
2022-10-29T09:24:16.723Z,100119.53
2022-10-29T09:26:58.494Z,100116.66
2022-10-29T09:29:52.924Z,100114.06
2022-10-29T09:32:26.078Z,100108.84
2022-10-29T09:35:01.673Z,100105.13
2022-10-29T09:37:42.096Z,100085.53
2022-10-29T09:40:24.470Z,100085.19
2022-10-29T09:42:55.626Z,100089.25
2022-10-29T09:45:38.174Z,100089.81
2022-10-29T09:48:14.034Z,100085.06
2022-10-29T09:51:07.067Z,100071.50
2022-10-29T09:53:36.207Z,100076.78
2022-10-29T09:56:09.131Z,100072.41
2022-10-29T09:58:44.612Z,100074.91
2022-10-29T10:01:15.063Z,100063.09
2022-10-29T10:03:48.532Z,100057.34
2022-10-29T10:06:18.561Z,100057.63
2022-10-29T10:09:02.044Z,100051.00
2022-10-29T10:11:39.801Z,100049.38
2022-10-29T10:14:19.151Z,100041.09
2022-10-29T10:16:58.437Z,100042.59
2022-10-29T10:19:30.177Z,100035.16
2022-10-29T10:22:01.476Z,100031.72
2022-10-29T10:24:33.348Z,100025.84
2022-10-29T10:27:03.067Z,100022.38
2022-10-29T10:29:33.455Z,100013.38
2022-10-29T10:32:16.975Z,100011.94
2022-10-29T10:34:46.056Z,100011.88
2022-10-29T10:37:20.376Z,100016.50
2022-10-29T10:39:53.825Z,100009.47
2022-10-29T10:42:26.762Z,100006.38
2022-10-29T10:45:00.659Z,100010.16
2022-10-29T10:47:34.011Z,100009.41
2022-10-29T10:50:13.778Z,100002.03
2022-10-29T10:52:42.914Z,99997.94
2022-10-29T10:55:24.171Z,99988.72
2022-10-29T10:58:02.339Z,99992.63
2022-10-29T11:00:40.927Z,99993.19
2022-10-29T11:03:19.522Z,99985.31
2022-10-29T11:05:58.472Z,99972.53
2022-10-29T11:08:33.736Z,99971.09
2022-10-29T11:11:08.349Z,99975.53
2022-10-29T11:13:41.187Z,99955.28
2022-10-29T11:16:18.051Z,99960.50
2022-10-29T11:18:55.280Z,99952.53
2022-10-29T11:21:32.254Z,99960.25
2022-10-29T11:24:08.556Z,99966.22
2022-10-29T11:26:42.913Z,99942.03
2022-10-29T11:29:22.672Z,99934.78
2022-10-29T11:32:00.291Z,99949.53
2022-10-29T11:34:44.504Z,99941.69
2022-10-29T11:37:24.454Z,99943.75
2022-10-29T11:39:59.285Z,99945.50
2022-10-29T11:42:28.398Z,99943.03
2022-10-29T11:45:00.284Z,99938.94
2022-10-29T11:47:51.625Z,99937.41
2022-10-29T11:50:29.345Z,99938.16
2022-10-29T11:53:12.293Z,99928.25
2022-10-29T11:55:58.212Z,99931.66
2022-10-29T11:58:39.597Z,99929.16
2022-10-29T12:01:21.539Z,99923.47
2022-10-29T12:04:19.536Z,99924.66
2022-10-29T12:07:19.019Z,99929.63
2022-10-29T12:10:27.841Z,99927.09
2022-10-29T12:13:05.764Z,99922.97
2022-10-29T12:15:46.554Z,99924.19
2022-10-29T12:18:27.106Z,99922.28
2022-10-29T12:21:08.001Z,99921.13
2022-10-29T12:23:53.189Z,99914.66
2022-10-29T12:26:32.006Z,99907.88
2022-10-29T12:29:12.736Z,99907.41
2022-10-29T12:31:50.216Z,99893.47
2022-10-29T12:34:31.104Z,99887.50
2022-10-29T12:37:12.486Z,99888.25
2022-10-29T12:39:48.350Z,99888.56
2022-10-29T12:42:24.160Z,99885.44
2022-10-29T12:45:07.449Z,99881.81
2022-10-29T12:47:43.944Z,99877.41
2022-10-29T12:50:30.165Z,99871.44
2022-10-29T12:53:11.312Z,99875.78
2022-10-29T12:55:42.257Z,99870.56
2022-10-29T12:58:50.478Z,99870.22
2022-10-29T13:04:36.925Z,99874.06
2022-10-29T13:07:24.135Z,99878.91
2022-10-29T13:10:44.898Z,99874.81
2022-10-29T13:13:57.820Z,99870.09
2022-10-29T13:16:31.150Z,99865.88
2022-10-29T13:19:39.402Z,99865.50
2022-10-29T13:22:51.323Z,99857.53
2022-10-29T13:25:48.698Z,99852.69
2022-10-29T13:28:52.323Z,99859.69
2022-10-29T13:31:52.102Z,99858.75
2022-10-29T13:34:59.341Z,99855.41
2022-10-29T13:38:19.405Z,99857.88
2022-10-29T13:41:16.571Z,99858.19
2022-10-29T13:43:58.537Z,99845.50
2022-10-29T13:46:45.578Z,99842.38
2022-10-29T13:49:20.493Z,99838.41
2022-10-29T13:52:00.493Z,99843.22
2022-10-29T13:54:50.866Z,99838.81
2022-10-29T13:57:24.938Z,99837.25
2022-10-29T14:00:00.696Z,99832.25
2022-10-29T14:02:49.484Z,99827.53
2022-10-29T14:05:22.745Z,99825.97
2022-10-29T14:08:00.522Z,99825.97
2022-10-29T14:10:35.276Z,99824.38
2022-10-29T14:13:14.562Z,99835.00
2022-10-29T14:16:02.673Z,99834.03
2022-10-29T14:18:33.953Z,99835.13
2022-10-29T14:21:05.561Z,99827.75
2022-10-29T14:23:35.185Z,99838.66
2022-10-29T14:26:04.294Z,99835.81
2022-10-29T14:28:35.097Z,99840.66
2022-10-29T14:31:08.649Z,99843.09
2022-10-29T14:33:39.940Z,99837.63
2022-10-29T14:36:21.382Z,99837.72
2022-10-29T14:38:53.998Z,99834.09
2022-10-29T14:41:24.598Z,99846.38
2022-10-29T14:44:17.722Z,99832.91
2022-10-29T14:46:59.189Z,99836.19
2022-10-29T14:49:29.483Z,99834.69
2022-10-29T14:52:02.488Z,99836.66
2022-10-29T14:54:36.291Z,99825.38
2022-10-29T14:57:11.455Z,99835.47
2022-10-29T14:59:46.600Z,99833.72
2022-10-29T15:02:36.899Z,99822.13
2022-10-29T15:05:23.656Z,99821.44
2022-10-29T15:07:53.192Z,99823.13
2022-10-29T15:10:26.514Z,99820.25
2022-10-29T15:12:57.367Z,99815.06
2022-10-29T15:15:31.091Z,99810.63
2022-10-29T15:18:04.810Z,99812.03
2022-10-29T15:20:38.428Z,99806.81
2022-10-29T15:23:18.395Z,99813.78
2022-10-29T15:25:51.688Z,99810.91
2022-10-29T15:28:26.173Z,99812.84
2022-10-29T15:30:55.554Z,99808.75
2022-10-29T15:33:29.486Z,99815.22
2022-10-29T15:36:01.341Z,99815.28
2022-10-29T15:39:10.699Z,99813.59
2022-10-29T15:41:49.301Z,99816.03
2022-10-29T15:44:34.702Z,99819.88
2022-10-29T15:47:22.027Z,99827.41
2022-10-29T15:49:52.455Z,99824.84
2022-10-29T15:52:23.208Z,99815.38
2022-10-29T15:54:52.299Z,99814.91
2022-10-29T15:57:21.292Z,99825.53
2022-10-29T15:59:55.405Z,99818.47
2022-10-29T16:02:26.863Z,99821.50
2022-10-29T16:04:57.396Z,99827.16
2022-10-29T16:07:26.541Z,99831.44
2022-10-29T16:09:58.417Z,99833.88
2022-10-29T16:12:27.622Z,99837.13
2022-10-29T16:14:56.601Z,99830.31
2022-10-29T16:17:25.595Z,99825.88
2022-10-29T16:19:56.207Z,99828.59
2022-10-29T16:22:29.719Z,99826.53
2022-10-29T16:24:58.731Z,99825.25
2022-10-29T16:27:27.739Z,99824.25
2022-10-29T16:29:56.742Z,99819.53
2022-10-29T16:32:26.244Z,99817.44
2022-10-29T16:34:56.583Z,99810.63
2022-10-29T16:37:25.573Z,99821.28
2022-10-29T16:39:54.560Z,99823.50
2022-10-29T16:42:31.829Z,99815.59
2022-10-29T16:45:00.868Z,99825.19
2022-10-29T16:47:29.970Z,99823.09
2022-10-29T16:50:00.395Z,99818.38
2022-10-29T16:52:29.856Z,99820.53
2022-10-29T16:54:59.018Z,99828.19
2022-10-29T16:57:29.454Z,99818.94
2022-10-29T16:59:58.586Z,99822.16
2022-10-29T17:02:27.606Z,99821.66
2022-10-29T17:04:56.578Z,99814.34
2022-10-29T17:07:27.016Z,99826.78
2022-10-29T17:09:55.996Z,99828.72
2022-10-29T17:12:25.057Z,99832.19
2022-10-29T17:14:54.026Z,99825.66
2022-10-29T17:17:23.222Z,99822.53
2022-10-29T17:19:53.709Z,99826.81
2022-10-29T17:22:22.712Z,99825.03
2022-10-29T17:24:53.113Z,99830.09
2022-10-29T17:27:22.138Z,99830.94
2022-10-29T17:29:51.132Z,99830.69
2022-10-29T17:32:20.168Z,99825.97
2022-10-29T17:34:49.134Z,99831.31
2022-10-29T17:37:18.256Z,99833.69
2022-10-29T17:39:47.356Z,99824.50
2022-10-29T17:42:18.100Z,99828.22
2022-10-29T17:44:47.147Z,99817.19
2022-10-29T17:47:17.147Z,99832.22
2022-10-29T17:49:46.119Z,99826.69
2022-10-29T17:52:15.208Z,99831.97
2022-10-29T17:54:44.654Z,99833.06
2022-10-29T17:57:13.662Z,99830.47
2022-10-29T17:59:44.073Z,99833.66
2022-10-29T18:02:13.355Z,99838.44
2022-10-29T18:04:42.462Z,99837.13
2022-10-29T18:07:11.439Z,99840.56
2022-10-29T18:09:40.580Z,99833.47
2022-10-29T18:12:09.835Z,99835.91
2022-10-29T18:14:38.834Z,99836.72
2022-10-29T18:17:09.366Z,99836.47
2022-10-29T18:19:38.411Z,99843.38
2022-10-29T18:22:07.472Z,99844.72
2022-10-29T18:24:36.619Z,99852.41
2022-10-29T18:27:05.807Z,99848.72
2022-10-29T18:29:34.846Z,99843.50
2022-10-29T18:32:03.840Z,99847.75
2022-10-29T18:34:34.353Z,99851.97
2022-10-29T18:37:03.554Z,99855.94
2022-10-29T18:39:32.624Z,99857.28
2022-10-29T18:42:01.690Z,99854.66
2022-10-29T18:44:30.983Z,99853.84
2022-10-29T18:47:00.236Z,99845.19
2022-10-29T18:49:29.341Z,99849.44
2022-10-29T18:51:59.882Z,99834.41
2022-10-29T18:54:28.932Z,99841.56
2022-10-29T18:56:58.018Z,99832.59
2022-10-29T18:59:27.091Z,99834.19
2022-10-29T19:01:56.232Z,99833.97
2022-10-29T19:04:25.422Z,99833.69
2022-10-29T19:06:55.741Z,99835.31
2022-10-29T19:09:26.433Z,99828.72
2022-10-29T19:11:58.487Z,99835.34
2022-10-29T19:14:28.671Z,99829.00
2022-10-29T19:16:57.716Z,99826.16
2022-10-29T19:19:26.819Z,99838.53
2022-10-29T19:21:55.830Z,99836.97
2022-10-29T19:24:26.196Z,99836.97
2022-10-29T19:26:55.839Z,99844.34
2022-10-29T19:29:25.206Z,99842.25
2022-10-29T19:31:54.251Z,99842.81
2022-10-29T19:34:23.302Z,99839.69
2022-10-29T19:36:52.433Z,99845.25
2022-10-29T19:39:21.978Z,99843.38
2022-10-29T19:41:52.646Z,99852.09
2022-10-29T19:44:21.901Z,99850.78
2022-10-29T19:46:51.201Z,99850.28
2022-10-29T19:49:20.206Z,99845.56
2022-10-29T19:51:49.364Z,99844.75
2022-10-29T19:54:18.698Z,99843.44
2022-10-29T19:56:48.005Z,99851.34
2022-10-29T19:59:18.459Z,99853.44
2022-10-29T20:01:48.739Z,99850.28
2022-10-29T20:04:36.387Z,99849.75
2022-10-29T20:07:23.660Z,99855.06
2022-10-29T20:10:11.069Z,99853.97
2022-10-29T20:12:58.748Z,99847.16
2022-10-29T20:15:47.628Z,99854.53
2022-10-29T20:18:36.288Z,99851.09
2022-10-29T20:21:23.968Z,99851.09
2022-10-29T20:24:11.528Z,99848.50
2022-10-29T20:26:59.145Z,99850.84
2022-10-29T20:29:46.451Z,99856.38
2022-10-29T20:32:35.210Z,99856.66
2022-10-29T20:35:23.225Z,99847.19
2022-10-29T20:38:11.061Z,99854.56
2022-10-29T20:40:58.528Z,99856.69
2022-10-29T20:43:46.006Z,99852.47
2022-10-29T20:46:33.438Z,99854.59
2022-10-29T20:49:22.131Z,99851.69
2022-10-29T20:52:09.812Z,99850.38
2022-10-29T20:54:57.396Z,99846.44
2022-10-29T20:57:44.788Z,99854.34
2022-10-29T21:00:32.070Z,99852.22
2022-10-29T21:03:20.088Z,99853.00
2022-10-29T21:06:17.053Z,99848.78
2022-10-29T21:09:05.524Z,99845.63
2022-10-29T21:11:53.156Z,99846.94
2022-10-29T21:14:40.646Z,99844.56
2022-10-29T21:17:28.126Z,99853.00
2022-10-29T21:20:15.836Z,99855.91
2022-10-29T21:23:04.975Z,99849.06
2022-10-29T21:25:54.541Z,99863.53
2022-10-29T21:28:42.411Z,99863.53
2022-10-29T21:31:30.071Z,99862.22
2022-10-29T21:34:18.245Z,99861.41
2022-10-29T21:37:05.879Z,99856.91
2022-10-29T21:39:54.632Z,99860.59
2022-10-29T21:42:42.092Z,99865.59
2022-10-29T21:45:29.716Z,99854.81
2022-10-29T21:48:17.314Z,99855.06
2022-10-29T21:51:07.147Z,99859.56
2022-10-29T21:53:55.424Z,99854.28
2022-10-29T21:56:44.270Z,99855.63
2022-10-29T21:59:31.829Z,99860.06
2022-10-29T22:02:19.323Z,99853.50
2022-10-29T22:05:07.591Z,99854.78
2022-10-29T22:07:58.451Z,99849.81
2022-10-29T22:10:46.364Z,99856.13
2022-10-29T22:13:36.278Z,99846.09
2022-10-29T22:16:24.313Z,99845.84
2022-10-29T22:19:12.191Z,99840.84
2022-10-29T22:21:59.681Z,99848.75
2022-10-29T22:24:47.207Z,99861.13
2022-10-29T22:27:34.559Z,99850.59
2022-10-29T22:30:23.472Z,99845.31
2022-10-29T22:33:10.875Z,99849.25
2022-10-29T22:36:08.691Z,99844.00
2022-10-29T22:38:57.763Z,99841.06
2022-10-29T22:41:45.205Z,99841.63
2022-10-29T22:44:32.831Z,99845.53
2022-10-29T22:47:21.378Z,99841.34
2022-10-29T22:50:09.907Z,99845.03
2022-10-29T22:52:57.692Z,99848.19
2022-10-29T22:55:52.759Z,99836.34
2022-10-29T22:58:40.531Z,99844.75
2022-10-29T23:01:30.511Z,99838.16
2022-10-29T23:04:19.841Z,99837.06
2022-10-29T23:07:07.079Z,99840.75
2022-10-29T23:09:54.304Z,99839.69
2022-10-29T23:12:41.660Z,99848.63
2022-10-29T23:15:29.090Z,99833.88
2022-10-29T23:18:16.278Z,99832.81
2022-10-29T23:21:07.611Z,99833.88
2022-10-29T23:23:56.035Z,99833.59
2022-10-29T23:26:43.726Z,99844.63
2022-10-29T23:29:30.838Z,99850.13
2022-10-29T23:32:18.145Z,99848.03
2022-10-29T23:35:06.098Z,99845.94
2022-10-29T23:37:55.310Z,99840.38
2022-10-29T23:40:45.236Z,99843.25
2022-10-29T23:43:32.803Z,99840.13
2022-10-29T23:46:20.263Z,99831.69
2022-10-29T23:49:07.594Z,99837.44
2022-10-29T23:51:54.946Z,99841.66
2022-10-29T23:54:43.586Z,99837.69
2022-10-29T23:57:31.024Z,99842.16
